Time;durP1;ratioP1;P1;durP2;ratioP2;P2;SDS_P1;SDS_P2;PMS_P1;PMS_P2;Temp;Humidity;BMP_temperature;BMP_pressure;BME280_temperature;BME280_humidity;BME280_pressure;Samples;Min_cycle;Max_cycle;Signal;HPM_P1;HPM_P2
2020/12/18 00:01:49;;;;;;;;;;;20.30;40.20;;;;;;491638;240;1064;-70
2020/12/18 00:03:52;;;;;;;;;;;20.20;40.30;;;;;;491683;240;936;-70
2020/12/18 00:05:52;;;;;;;;;;;20.20;39.60;;;;;;491635;240;2196;-70
2020/12/18 00:07:53;;;;;;;;;;;20.20;40.30;;;;;;491663;240;979;-70
2020/12/18 00:09:55;;;;;;;;;;;20.30;40.40;;;;;;491598;240;1227;-70
2020/12/18 00:11:56;;;;;;;;;;;20.30;40.20;;;;;;491565;240;1101;-70
2020/12/18 00:13:57;;;;;;;;;;;20.30;40.30;;;;;;491668;240;954;-69
2020/12/18 00:15:58;;;;;;;;;;;20.20;40.40;;;;;;491568;240;1119;-70
2020/12/18 00:18:00;;;;;;;;;;;20.20;40.30;;;;;;491625;240;1128;-69
2020/12/18 00:20:01;;;;;;;;;;;20.30;40.30;;;;;;491639;240;1053;-69
2020/12/18 00:22:02;;;;;;;;;;;20.30;40.30;;;;;;491609;240;1155;-69
2020/12/18 00:24:03;;;;;;;;;;;20.30;40.30;;;;;;491661;240;953;-70
2020/12/18 00:26:05;;;;;;;;;;;20.30;40.40;;;;;;491600;240;2144;-70
2020/12/18 00:28:06;;;;;;;;;;;20.20;40.50;;;;;;491717;240;1178;-70
2020/12/18 00:30:07;;;;;;;;;;;20.30;40.50;;;;;;491620;240;1087;-70
2020/12/18 00:32:09;;;;;;;;;;;20.30;40.40;;;;;;491584;240;955;-70
2020/12/18 00:34:10;;;;;;;;;;;20.20;40.50;;;;;;491617;240;1018;-70
2020/12/18 00:36:11;;;;;;;;;;;20.20;40.60;;;;;;491549;240;1030;-70
2020/12/18 00:38:12;;;;;;;;;;;20.20;40.40;;;;;;491646;240;978;-70
2020/12/18 00:40:14;;;;;;;;;;;20.30;40.50;;;;;;491685;240;961;-70
2020/12/18 00:42:15;;;;;;;;;;;20.20;40.40;;;;;;491645;239;1340;-70
2020/12/18 00:44:16;;;;;;;;;;;20.30;40.40;;;;;;491641;240;1034;-70
2020/12/18 00:46:17;;;;;;;;;;;20.30;40.40;;;;;;491616;240;2124;-70
2020/12/18 00:48:19;;;;;;;;;;;20.30;39.80;;;;;;491643;240;1057;-70
2020/12/18 00:50:20;;;;;;;;;;;20.30;40.50;;;;;;491628;240;1024;-70
2020/12/18 00:52:21;;;;;;;;;;;20.30;40.50;;;;;;491636;240;1104;-70
2020/12/18 00:54:23;;;;;;;;;;;20.40;40.40;;;;;;491669;240;936;-70
2020/12/18 00:56:24;;;;;;;;;;;20.30;40.40;;;;;;491627;240;1029;-70
2020/12/18 00:58:25;;;;;;;;;;;20.30;40.50;;;;;;491652;240;1118;-70
2020/12/18 01:00:26;;;;;;;;;;;20.40;40.40;;;;;;491618;240;1015;-70
2020/12/18 01:02:28;;;;;;;;;;;20.30;40.50;;;;;;491620;240;1040;-70
2020/12/18 01:04:29;;;;;;;;;;;20.30;40.50;;;;;;491654;240;985;-70
2020/12/18 01:06:30;;;;;;;;;;;20.20;40.60;;;;;;491617;240;2183;-70
2020/12/18 01:08:32;;;;;;;;;;;20.20;40.60;;;;;;491768;240;1020;-70
2020/12/18 01:10:33;;;;;;;;;;;20.30;40.50;;;;;;491665;240;1226;-70
2020/12/18 01:12:34;;;;;;;;;;;20.30;40.50;;;;;;491646;240;1277;-70
2020/12/18 01:14:35;;;;;;;;;;;20.20;40.50;;;;;;491712;240;995;-70
2020/12/18 01:16:37;;;;;;;;;;;20.20;40.50;;;;;;491594;240;960;-70
2020/12/18 01:18:38;;;;;;;;;;;20.20;40.70;;;;;;491614;240;1169;-70
2020/12/18 01:20:39;;;;;;;;;;;20.20;40.60;;;;;;491656;240;989;-69
2020/12/18 01:22:40;;;;;;;;;;;20.20;40.70;;;;;;491629;240;1100;-70
2020/12/18 01:24:42;;;;;;;;;;;20.20;40.60;;;;;;491650;240;966;-70
2020/12/18 01:26:43;;;;;;;;;;;20.20;40.50;;;;;;491630;240;2191;-70
2020/12/18 01:28:44;;;;;;;;;;;20.20;40.50;;;;;;491680;240;1156;-70
2020/12/18 01:30:45;;;;;;;;;;;20.30;40.40;;;;;;491597;240;1094;-70
2020/12/18 01:32:47;;;;;;;;;;;20.30;40.40;;;;;;491605;240;1080;-70
2020/12/18 01:34:48;;;;;;;;;;;20.30;39.50;;;;;;491623;240;1191;-70
2020/12/18 01:36:49;;;;;;;;;;;20.30;40.50;;;;;;491689;240;1027;-70
2020/12/18 01:38:51;;;;;;;;;;;20.20;40.50;;;;;;491648;240;938;-70
2020/12/18 01:40:52;;;;;;;;;;;20.30;40.40;;;;;;491664;240;1135;-70
2020/12/18 01:42:53;;;;;;;;;;;20.20;40.40;;;;;;491633;240;1343;-70
2020/12/18 01:44:54;;;;;;;;;;;20.20;40.40;;;;;;491637;240;1094;-70
2020/12/18 01:46:56;;;;;;;;;;;20.20;40.40;;;;;;491551;240;2121;-70
2020/12/18 01:48:57;;;;;;;;;;;20.20;40.40;;;;;;491661;240;1124;-70
2020/12/18 01:50:58;;;;;;;;;;;20.20;40.30;;;;;;491620;240;1024;-70
2020/12/18 01:52:59;;;;;;;;;;;20.30;39.60;;;;;;491627;240;1115;-70
2020/12/18 01:55:01;;;;;;;;;;;20.30;39.60;;;;;;491671;240;947;-70
2020/12/18 01:57:02;;;;;;;;;;;20.30;40.30;;;;;;491621;240;1127;-70
2020/12/18 01:59:03;;;;;;;;;;;20.30;40.30;;;;;;491652;240;1141;-69
2020/12/18 02:01:05;;;;;;;;;;;20.30;40.30;;;;;;491658;240;1059;-70
2020/12/18 02:03:06;;;;;;;;;;;20.30;40.30;;;;;;491660;240;1164;-70
2020/12/18 02:05:07;;;;;;;;;;;20.30;40.40;;;;;;491580;240;2183;-70
2020/12/18 02:07:08;;;;;;;;;;;20.30;40.20;;;;;;491689;240;1216;-70
2020/12/18 02:09:10;;;;;;;;;;;20.30;40.20;;;;;;491626;240;1130;-71
2020/12/18 02:11:11;;;;;;;;;;;20.30;40.20;;;;;;491689;240;1061;-70
2020/12/18 02:13:12;;;;;;;;;;;20.20;40.40;;;;;;491612;240;1295;-69
2020/12/18 02:15:14;;;;;;;;;;;20.20;40.40;;;;;;491693;240;1045;-69
2020/12/18 02:17:15;;;;;;;;;;;20.20;40.40;;;;;;491604;240;1165;-69
2020/12/18 02:19:16;;;;;;;;;;;20.30;40.30;;;;;;491673;240;1088;-69
2020/12/18 02:21:17;;;;;;;;;;;20.20;40.20;;;;;;491637;240;991;-70
2020/12/18 02:23:19;;;;;;;;;;;20.30;40.20;;;;;;491676;240;1111;-70
2020/12/18 02:25:22;;;;;;;;;;;20.30;40.10;;;;;;491661;240;2184;-70
2020/12/18 02:27:23;;;;;;;;;;;20.20;40.10;;;;;;491694;240;1117;-70
2020/12/18 02:29:24;;;;;;;;;;;20.20;40.30;;;;;;491667;240;1265;-70
2020/12/18 02:31:26;;;;;;;;;;;20.30;40.30;;;;;;491625;240;956;-70
2020/12/18 02:33:27;;;;;;;;;;;20.20;40.20;;;;;;491626;240;961;-70
2020/12/18 02:35:28;;;;;;;;;;;20.20;40.30;;;;;;491615;240;1108;-70
2020/12/18 02:37:30;;;;;;;;;;;20.20;40.30;;;;;;491655;240;925;-70
2020/12/18 02:39:31;;;;;;;;;;;20.20;40.20;;;;;;491662;240;940;-70
2020/12/18 02:41:32;;;;;;;;;;;20.20;40.30;;;;;;491653;240;1102;-70
2020/12/18 02:43:33;;;;;;;;;;;20.20;39.30;;;;;;491651;240;1203;-70
2020/12/18 02:45:35;;;;;;;;;;;20.20;40.40;;;;;;491605;240;2129;-70
2020/12/18 02:47:36;;;;;;;;;;;20.20;40.50;;;;;;491595;240;1113;-70
2020/12/18 02:49:37;;;;;;;;;;;20.20;40.50;;;;;;491643;240;1218;-70
2020/12/18 02:51:39;;;;;;;;;;;20.20;40.50;;;;;;491599;240;1164;-70
2020/12/18 02:53:40;;;;;;;;;;;20.20;40.50;;;;;;491663;240;1147;-70
2020/12/18 02:55:41;;;;;;;;;;;20.20;40.50;;;;;;491622;240;1215;-70
2020/12/18 02:57:42;;;;;;;;;;;20.30;40.50;;;;;;491577;240;1124;-70
2020/12/18 02:59:44;;;;;;;;;;;20.30;40.40;;;;;;491619;240;1153;-70
2020/12/18 03:01:45;;;;;;;;;;;20.20;40.50;;;;;;491548;240;1121;-70
2020/12/18 03:03:46;;;;;;;;;;;20.20;40.40;;;;;;491641;240;1246;-70
2020/12/18 03:05:47;;;;;;;;;;;20.20;40.40;;;;;;491570;240;2187;-70
2020/12/18 03:07:49;;;;;;;;;;;20.30;40.30;;;;;;491539;240;930;-69
2020/12/18 03:09:50;;;;;;;;;;;20.20;40.40;;;;;;491603;240;1065;-69
2020/12/18 03:11:51;;;;;;;;;;;20.20;40.40;;;;;;491613;240;966;-69
2020/12/18 03:13:53;;;;;;;;;;;20.20;40.50;;;;;;491634;240;1184;-70
2020/12/18 03:15:55;;;;;;;;;;;20.30;40.40;;;;;;491612;240;1308;-70
2020/12/18 03:17:55;;;;;;;;;;;20.30;40.40;;;;;;491672;240;1525;-71
2020/12/18 03:19:56;;;;;;;;;;;20.20;40.40;;;;;;491667;240;1164;-70
2020/12/18 03:21:58;;;;;;;;;;;20.20;40.40;;;;;;491636;240;1042;-69
2020/12/18 03:23:59;;;;;;;;;;;20.20;40.40;;;;;;491652;240;1071;-69
2020/12/18 03:26:00;;;;;;;;;;;20.30;40.40;;;;;;491614;240;2187;-69
2020/12/18 03:28:01;;;;;;;;;;;20.20;39.40;;;;;;491661;240;1053;-69
2020/12/18 03:30:03;;;;;;;;;;;20.20;40.50;;;;;;491577;240;1252;-69
2020/12/18 03:32:04;;;;;;;;;;;20.20;40.50;;;;;;491614;240;994;-69
2020/12/18 03:34:05;;;;;;;;;;;20.30;40.40;;;;;;491672;240;1137;-69
2020/12/18 03:36:07;;;;;;;;;;;20.30;40.30;;;;;;491695;240;1040;-69
2020/12/18 03:38:08;;;;;;;;;;;20.20;40.30;;;;;;491635;240;950;-70
2020/12/18 03:40:09;;;;;;;;;;;20.20;40.40;;;;;;491680;240;1135;-70
2020/12/18 03:42:10;;;;;;;;;;;20.20;40.50;;;;;;491672;240;942;-70
2020/12/18 03:44:12;;;;;;;;;;;20.20;40.50;;;;;;491614;240;1220;-70
2020/12/18 03:46:14;;;;;;;;;;;20.20;40.30;;;;;;491609;240;2129;-70
2020/12/18 03:48:14;;;;;;;;;;;20.20;40.40;;;;;;491579;240;1411;-70
2020/12/18 03:50:15;;;;;;;;;;;20.20;40.50;;;;;;491536;240;1077;-70
2020/12/18 03:52:17;;;;;;;;;;;20.20;40.30;;;;;;491599;240;970;-70
2020/12/18 03:54:18;;;;;;;;;;;20.20;40.20;;;;;;491646;240;1094;-70
2020/12/18 03:56:19;;;;;;;;;;;20.20;40.20;;;;;;491626;240;1058;-70
2020/12/18 03:58:21;;;;;;;;;;;20.20;40.30;;;;;;491605;240;966;-70
2020/12/18 04:00:22;;;;;;;;;;;20.30;40.20;;;;;;491590;240;1133;-70
2020/12/18 04:02:23;;;;;;;;;;;20.30;40.10;;;;;;491623;240;984;-70
2020/12/18 04:04:24;;;;;;;;;;;20.20;40.10;;;;;;491634;240;966;-70
2020/12/18 04:06:26;;;;;;;;;;;20.20;40.00;;;;;;491623;240;2136;-70
2020/12/18 04:08:27;;;;;;;;;;;20.30;40.10;;;;;;491617;240;974;-70
2020/12/18 04:10:28;;;;;;;;;;;20.30;40.10;;;;;;491654;240;1133;-70
2020/12/18 04:12:29;;;;;;;;;;;20.30;40.10;;;;;;491618;240;1032;-70
2020/12/18 04:14:31;;;;;;;;;;;20.20;39.90;;;;;;491655;240;1076;-70
2020/12/18 04:16:32;;;;;;;;;;;20.30;39.80;;;;;;491670;240;1217;-70
2020/12/18 04:18:33;;;;;;;;;;;20.20;39.60;;;;;;491620;240;962;-70
2020/12/18 04:20:35;;;;;;;;;;;20.20;40.10;;;;;;491626;240;1034;-70
2020/12/18 04:22:36;;;;;;;;;;;20.20;40.10;;;;;;491639;240;952;-70
2020/12/18 04:24:37;;;;;;;;;;;20.20;40.10;;;;;;491653;240;1099;-70
2020/12/18 04:26:38;;;;;;;;;;;20.20;39.90;;;;;;491698;240;2191;-70
2020/12/18 04:28:40;;;;;;;;;;;20.20;39.90;;;;;;491631;240;994;-70
2020/12/18 04:30:41;;;;;;;;;;;20.20;39.80;;;;;;491649;240;1128;-69
2020/12/18 04:32:42;;;;;;;;;;;20.20;39.80;;;;;;491591;240;1003;-70
2020/12/18 04:34:43;;;;;;;;;;;20.30;39.70;;;;;;491612;240;1344;-70
2020/12/18 04:36:45;;;;;;;;;;;20.20;39.60;;;;;;491584;240;998;-70
2020/12/18 04:38:46;;;;;;;;;;;20.20;39.80;;;;;;491598;240;955;-70
2020/12/18 04:40:47;;;;;;;;;;;20.20;39.70;;;;;;491600;240;1153;-70
2020/12/18 04:42:49;;;;;;;;;;;20.20;39.70;;;;;;491497;240;1107;-70
2020/12/18 04:44:50;;;;;;;;;;;20.20;39.60;;;;;;491641;240;984;-70
2020/12/18 04:46:52;;;;;;;;;;;20.20;39.50;;;;;;491626;240;2200;-70
2020/12/18 04:48:53;;;;;;;;;;;20.20;39.60;;;;;;491618;240;984;-70
2020/12/18 04:50:54;;;;;;;;;;;20.20;39.60;;;;;;491629;240;1196;-70
2020/12/18 04:52:55;;;;;;;;;;;20.20;39.50;;;;;;491634;240;1094;-70
2020/12/18 04:54:57;;;;;;;;;;;20.20;39.60;;;;;;491633;240;996;-70
2020/12/18 04:56:58;;;;;;;;;;;20.30;39.60;;;;;;491551;240;1181;-70
2020/12/18 04:58:59;;;;;;;;;;;20.30;39.40;;;;;;491606;240;927;-70
2020/12/18 05:01:00;;;;;;;;;;;20.20;39.50;;;;;;491584;240;1167;-70
2020/12/18 05:03:03;;;;;;;;;;;20.20;39.60;;;;;;491595;240;950;-70
2020/12/18 05:05:03;;;;;;;;;;;20.30;39.50;;;;;;491630;240;1401;-70
2020/12/18 05:07:04;;;;;;;;;;;20.30;39.60;;;;;;491571;240;2179;-70
2020/12/18 05:09:06;;;;;;;;;;;20.20;39.30;;;;;;491509;240;1063;-69
2020/12/18 05:11:07;;;;;;;;;;;20.20;39.10;;;;;;491616;240;1220;-69
2020/12/18 05:13:08;;;;;;;;;;;20.20;39.60;;;;;;491597;240;961;-69
2020/12/18 05:15:09;;;;;;;;;;;20.20;39.10;;;;;;491556;240;1182;-69
2020/12/18 05:17:11;;;;;;;;;;;20.30;39.60;;;;;;491524;240;1196;-69
2020/12/18 05:19:12;;;;;;;;;;;20.20;39.60;;;;;;491572;240;1024;-69
2020/12/18 05:21:13;;;;;;;;;;;20.20;39.70;;;;;;491474;240;1197;-68
2020/12/18 05:23:14;;;;;;;;;;;20.20;39.50;;;;;;491551;240;1170;-69
2020/12/18 05:25:16;;;;;;;;;;;20.20;39.70;;;;;;491521;240;984;-69
2020/12/18 05:27:17;;;;;;;;;;;20.20;38.60;;;;;;491391;240;2149;-69
2020/12/18 05:29:18;;;;;;;;;;;20.30;39.50;;;;;;491509;240;1131;-69
2020/12/18 05:31:20;;;;;;;;;;;20.30;39.70;;;;;;491417;240;1280;-69
2020/12/18 05:33:21;;;;;;;;;;;20.30;39.70;;;;;;491514;240;1165;-69
2020/12/18 05:35:22;;;;;;;;;;;20.30;39.60;;;;;;491509;240;948;-69
2020/12/18 05:37:23;;;;;;;;;;;20.20;39.50;;;;;;491545;240;1377;-69
2020/12/18 05:39:25;;;;;;;;;;;20.20;39.60;;;;;;491651;240;1079;-69
2020/12/18 05:41:26;;;;;;;;;;;20.20;39.60;;;;;;491568;240;1368;-69
2020/12/18 05:43:27;;;;;;;;;;;20.30;39.50;;;;;;491574;240;1081;-69
2020/12/18 05:45:29;;;;;;;;;;;20.20;39.50;;;;;;491574;240;964;-69
2020/12/18 05:47:30;;;;;;;;;;;20.20;39.40;;;;;;491435;240;2148;-69
2020/12/18 05:49:38;;;;;;;;;;;20.30;39.20;;;;;;491517;240;1110;-69
2020/12/18 05:51:36;;;;;;;;;;;20.30;39.20;;;;;;490411;242;1363;-69
2020/12/18 05:53:37;;;;;;;;;;;20.30;39.20;;;;;;491452;240;1063;-69
2020/12/18 05:55:40;;;;;;;;;;;20.30;39.20;;;;;;491530;240;1065;-69
2020/12/18 05:57:42;;;;;;;;;;;20.30;39.20;;;;;;491333;240;1133;-69
2020/12/18 05:59:43;;;;;;;;;;;20.20;39.10;;;;;;491485;240;974;-69
2020/12/18 06:01:44;;;;;;;;;;;20.30;39.10;;;;;;491400;240;1223;-69
2020/12/18 06:03:46;;;;;;;;;;;20.30;39.10;;;;;;491422;240;1002;-69
2020/12/18 06:05:47;;;;;;;;;;;20.30;39.00;;;;;;491420;240;1079;-69
2020/12/18 06:07:48;;;;;;;;;;;20.30;39.00;;;;;;491321;240;2187;-69
2020/12/18 06:09:49;;;;;;;;;;;20.30;39.10;;;;;;491406;240;1053;-69
2020/12/18 06:11:51;;;;;;;;;;;20.20;39.00;;;;;;491431;240;1185;-69
2020/12/18 06:13:52;;;;;;;;;;;20.20;39.00;;;;;;491490;240;1080;-69
2020/12/18 06:15:53;;;;;;;;;;;20.30;38.90;;;;;;491436;241;1192;-69
2020/12/18 06:17:54;;;;;;;;;;;20.30;38.80;;;;;;491342;240;1274;-69
2020/12/18 06:19:56;;;;;;;;;;;20.30;38.90;;;;;;491392;240;949;-69
2020/12/18 06:21:57;;;;;;;;;;;20.30;38.70;;;;;;491471;240;1114;-69
2020/12/18 06:23:58;;;;;;;;;;;20.40;38.40;;;;;;491422;240;1132;-69
2020/12/18 06:26:00;;;;;;;;;;;20.30;39.10;;;;;;491327;240;1027;-69
2020/12/18 06:28:01;;;;;;;;;;;20.30;39.10;;;;;;491303;240;2175;-69
2020/12/18 06:30:02;;;;;;;;;;;20.30;39.10;;;;;;491117;240;1044;-69
2020/12/18 06:32:04;;;;;;;;;;;20.30;38.90;;;;;;491212;240;1169;-69
2020/12/18 06:34:05;;;;;;;;;;;20.30;39.00;;;;;;491250;240;1019;-69
2020/12/18 06:36:06;;;;;;;;;;;20.40;38.90;;;;;;491418;240;1150;-70
2020/12/18 06:38:07;;;;;;;;;;;20.40;38.90;;;;;;491253;240;1026;-69
2020/12/18 06:40:09;;;;;;;;;;;20.30;39.00;;;;;;491256;240;1139;-69
2020/12/18 06:42:10;;;;;;;;;;;20.40;38.90;;;;;;491272;240;1135;-69
2020/12/18 06:44:11;;;;;;;;;;;20.30;39.00;;;;;;491417;240;953;-69
2020/12/18 06:46:12;;;;;;;;;;;20.30;39.10;;;;;;491345;240;1158;-69
2020/12/18 06:48:14;;;;;;;;;;;20.30;39.10;;;;;;491315;240;2160;-69
2020/12/18 06:50:16;;;;;;;;;;;20.30;39.10;;;;;;491237;240;1048;-69
2020/12/18 06:52:16;;;;;;;;;;;20.30;39.00;;;;;;491274;240;1501;-69
2020/12/18 06:54:18;;;;;;;;;;;20.30;38.90;;;;;;491189;240;1088;-69
2020/12/18 06:56:19;;;;;;;;;;;20.40;39.00;;;;;;491086;240;1194;-69
2020/12/18 06:58:20;;;;;;;;;;;20.30;39.00;;;;;;491124;240;1032;-69
2020/12/18 07:00:21;;;;;;;;;;;20.30;39.10;;;;;;491167;240;1057;-69
2020/12/18 07:02:23;;;;;;;;;;;20.30;39.10;;;;;;491351;240;1141;-69
2020/12/18 07:04:24;;;;;;;;;;;20.30;39.10;;;;;;491337;240;1059;-69
2020/12/18 07:06:27;;;;;;;;;;;20.20;39.20;;;;;;491284;240;1149;-69
2020/12/18 07:08:26;;;;;;;;;;;20.20;39.20;;;;;;491297;241;2183;-69
2020/12/18 07:10:28;;;;;;;;;;;20.20;39.30;;;;;;491331;240;1045;-69
2020/12/18 07:12:29;;;;;;;;;;;20.20;39.30;;;;;;491216;240;1089;-69
2020/12/18 07:14:31;;;;;;;;;;;20.20;39.30;;;;;;491305;240;1067;-69
2020/12/18 07:16:32;;;;;;;;;;;20.20;38.70;;;;;;491245;240;1178;-69
2020/12/18 07:18:33;;;;;;;;;;;20.30;39.40;;;;;;491282;240;1186;-69
2020/12/18 07:20:35;;;;;;;;;;;20.30;39.40;;;;;;491057;240;1053;-69
2020/12/18 07:22:36;;;;;;;;;;;20.20;39.40;;;;;;491017;240;1156;-69
2020/12/18 07:24:37;;;;;;;;;;;20.20;39.50;;;;;;491135;240;1137;-69
2020/12/18 07:26:39;;;;;;;;;;;20.30;39.50;;;;;;491220;240;1145;-69
2020/12/18 07:28:41;;;;;;;;;;;20.30;39.50;;;;;;491013;240;2124;-69
2020/12/18 07:30:42;;;;;;;;;;;20.20;39.50;;;;;;490986;240;1396;-69
2020/12/18 07:32:44;;;;;;;;;;;20.30;39.50;;;;;;491143;240;1171;-69
2020/12/18 07:34:45;;;;;;;;;;;20.30;39.50;;;;;;491030;240;1229;-69
2020/12/18 07:36:46;;;;;;;;;;;20.20;39.60;;;;;;491025;240;1189;-69
2020/12/18 07:38:48;;;;;;;;;;;20.20;39.70;;;;;;490993;240;1025;-69
2020/12/18 07:40:51;;;;;;;;;;;20.20;39.60;;;;;;490983;238;1255;-69
2020/12/18 07:42:50;;;;;;;;;;;20.20;39.60;;;;;;491008;241;1459;-69
2020/12/18 07:44:52;;;;;;;;;;;20.20;39.60;;;;;;491135;240;1121;-69
2020/12/18 07:46:53;;;;;;;;;;;20.20;39.60;;;;;;491068;240;1089;-69
2020/12/18 07:48:54;;;;;;;;;;;20.30;39.60;;;;;;491058;240;2183;-69
2020/12/18 07:50:55;;;;;;;;;;;20.30;39.60;;;;;;491175;240;1039;-69
2020/12/18 07:52:57;;;;;;;;;;;20.20;39.60;;;;;;491110;240;1229;-69
2020/12/18 07:54:58;;;;;;;;;;;20.20;39.70;;;;;;491244;240;1086;-70
2020/12/18 07:56:59;;;;;;;;;;;20.30;39.60;;;;;;491185;240;1022;-70
2020/12/18 07:59:04;;;;;;;;;;;20.20;39.60;;;;;;490856;240;1031;-69
2020/12/18 08:01:02;;;;;;;;;;;20.30;39.60;;;;;;491082;242;1411;-69
2020/12/18 08:03:03;;;;;;;;;;;20.30;39.70;;;;;;490991;240;1318;-69
2020/12/18 08:05:05;;;;;;;;;;;20.30;39.70;;;;;;491121;240;1044;-69
2020/12/18 08:07:06;;;;;;;;;;;20.30;38.70;;;;;;490804;240;1087;-69
2020/12/18 08:09:07;;;;;;;;;;;20.30;40.00;;;;;;490629;240;2129;-69
2020/12/18 08:11:09;;;;;;;;;;;20.30;40.00;;;;;;491010;240;1053;-69
2020/12/18 08:13:10;;;;;;;;;;;20.30;39.90;;;;;;491070;240;1098;-69
2020/12/18 08:15:11;;;;;;;;;;;20.20;39.90;;;;;;491020;240;1032;-69
2020/12/18 08:17:12;;;;;;;;;;;20.30;39.90;;;;;;490712;240;1087;-69
2020/12/18 08:19:14;;;;;;;;;;;20.30;39.90;;;;;;490889;240;1203;-69
2020/12/18 08:21:15;;;;;;;;;;;20.30;40.00;;;;;;491182;240;1041;-69
2020/12/18 08:23:18;;;;;;;;;;;20.30;40.00;;;;;;491114;240;1057;-69
2020/12/18 08:25:17;;;;;;;;;;;20.30;39.90;;;;;;491055;240;1324;-69
2020/12/18 08:27:21;;;;;;;;;;;20.30;40.00;;;;;;490641;240;2191;-69
2020/12/18 08:29:20;;;;;;;;;;;20.40;40.00;;;;;;490865;241;1543;-69
2020/12/18 08:31:21;;;;;;;;;;;20.30;40.00;;;;;;490927;240;1259;-69
2020/12/18 08:33:23;;;;;;;;;;;20.30;40.00;;;;;;491149;240;1232;-69
2020/12/18 08:35:24;;;;;;;;;;;20.40;40.10;;;;;;491103;240;1159;-69
2020/12/18 08:37:25;;;;;;;;;;;20.30;40.10;;;;;;491193;240;1068;-69
2020/12/18 08:39:26;;;;;;;;;;;20.40;40.10;;;;;;490906;240;1017;-69
2020/12/18 08:41:28;;;;;;;;;;;20.40;40.10;;;;;;490950;240;1260;-69
2020/12/18 08:43:29;;;;;;;;;;;20.40;39.90;;;;;;490911;240;1056;-69
2020/12/18 08:45:30;;;;;;;;;;;20.40;39.90;;;;;;490946;240;1190;-70
2020/12/18 08:47:31;;;;;;;;;;;20.50;40.00;;;;;;491091;240;2196;-70
2020/12/18 08:49:33;;;;;;;;;;;20.50;39.80;;;;;;491023;240;1235;-69
2020/12/18 08:51:34;;;;;;;;;;;20.50;39.90;;;;;;491048;240;1110;-69
2020/12/18 08:53:35;;;;;;;;;;;20.50;39.80;;;;;;491123;240;1142;-69
2020/12/18 08:55:37;;;;;;;;;;;20.50;39.60;;;;;;491124;240;1048;-69
2020/12/18 08:57:38;;;;;;;;;;;20.50;39.00;;;;;;491104;240;1051;-69
2020/12/18 08:59:39;;;;;;;;;;;20.50;39.50;;;;;;490978;240;1048;-70
2020/12/18 09:01:40;;;;;;;;;;;20.40;39.80;;;;;;490987;240;1224;-69
2020/12/18 09:03:42;;;;;;;;;;;20.50;39.80;;;;;;491021;240;1189;-69
2020/12/18 09:05:43;;;;;;;;;;;20.40;39.80;;;;;;490932;240;1032;-70
2020/12/18 09:07:44;;;;;;;;;;;20.50;39.60;;;;;;490967;240;2128;-69
2020/12/18 09:09:46;;;;;;;;;;;20.50;39.60;;;;;;491007;240;1084;-69
2020/12/18 09:11:49;;;;;;;;;;;20.40;39.50;;;;;;491060;240;1024;-69
2020/12/18 09:13:48;;;;;;;;;;;20.50;39.50;;;;;;491069;240;1786;-69
2020/12/18 09:15:50;;;;;;;;;;;20.50;39.50;;;;;;491151;240;1121;-70
2020/12/18 09:17:51;;;;;;;;;;;20.50;39.50;;;;;;491061;240;1206;-69
2020/12/18 09:19:52;;;;;;;;;;;20.50;39.40;;;;;;491177;240;1213;-69
2020/12/18 09:21:53;;;;;;;;;;;20.50;39.50;;;;;;491048;240;1219;-70
2020/12/18 09:23:55;;;;;;;;;;;20.50;39.40;;;;;;491019;240;1081;-69
2020/12/18 09:25:56;;;;;;;;;;;20.50;39.50;;;;;;491151;240;991;-69
2020/12/18 09:27:57;;;;;;;;;;;20.50;39.50;;;;;;491053;240;2180;-69
2020/12/18 09:29:59;;;;;;;;;;;20.50;39.60;;;;;;491055;240;1243;-69
2020/12/18 09:32:00;;;;;;;;;;;20.50;39.50;;;;;;490763;240;1053;-69
2020/12/18 09:34:02;;;;;;;;;;;20.50;39.50;;;;;;490862;238;1322;-69
2020/12/18 09:36:03;;;;;;;;;;;20.60;39.40;;;;;;490781;240;1471;-69
2020/12/18 09:38:04;;;;;;;;;;;20.50;39.40;;;;;;490820;240;1046;-68
2020/12/18 09:40:05;;;;;;;;;;;20.50;39.30;;;;;;490822;240;1060;-69
2020/12/18 09:42:06;;;;;;;;;;;20.50;39.40;;;;;;490872;240;1065;-69
2020/12/18 09:44:08;;;;;;;;;;;20.60;39.40;;;;;;490961;240;1007;-69
2020/12/18 09:46:11;;;;;;;;;;;20.60;39.20;;;;;;490859;240;1082;-69
2020/12/18 09:48:13;;;;;;;;;;;20.60;39.20;;;;;;490857;240;2187;-69
2020/12/18 09:50:14;;;;;;;;;;;20.70;39.30;;;;;;490916;240;1201;-70
2020/12/18 09:52:15;;;;;;;;;;;20.70;39.30;;;;;;490977;240;1298;-70
2020/12/18 09:54:16;;;;;;;;;;;20.70;39.30;;;;;;490899;240;1264;-69
2020/12/18 09:56:18;;;;;;;;;;;20.60;39.40;;;;;;491061;240;1060;-69
2020/12/18 09:58:19;;;;;;;;;;;20.60;39.50;;;;;;491061;240;1174;-70
2020/12/18 10:00:20;;;;;;;;;;;20.60;39.60;;;;;;491014;240;1146;-70
2020/12/18 10:02:21;;;;;;;;;;;20.60;39.70;;;;;;490988;240;1229;-70
2020/12/18 10:04:23;;;;;;;;;;;20.60;39.70;;;;;;490900;240;1158;-70
2020/12/18 10:06:24;;;;;;;;;;;20.60;39.80;;;;;;490939;240;1059;-70
2020/12/18 10:08:26;;;;;;;;;;;20.60;39.10;;;;;;490853;240;2173;-70
2020/12/18 10:10:27;;;;;;;;;;;20.60;40.00;;;;;;490838;240;1027;-69
2020/12/18 10:12:28;;;;;;;;;;;20.60;40.00;;;;;;490766;240;1117;-69
2020/12/18 10:14:29;;;;;;;;;;;20.60;40.00;;;;;;490772;240;1074;-69
2020/12/18 10:16:31;;;;;;;;;;;20.60;40.00;;;;;;490941;240;1077;-69
2020/12/18 10:18:32;;;;;;;;;;;20.70;40.10;;;;;;491059;240;1092;-69
2020/12/18 10:20:33;;;;;;;;;;;20.70;40.00;;;;;;490998;240;1201;-68
2020/12/18 10:22:34;;;;;;;;;;;20.60;39.90;;;;;;491092;240;1196;-70
2020/12/18 10:24:36;;;;;;;;;;;20.60;39.90;;;;;;491056;240;1198;-70
2020/12/18 10:26:37;;;;;;;;;;;20.60;39.50;;;;;;490900;240;1137;-70
2020/12/18 10:28:39;;;;;;;;;;;20.70;40.10;;;;;;490705;240;2128;-70
2020/12/18 10:30:40;;;;;;;;;;;20.70;40.10;;;;;;490903;240;1093;-71
2020/12/18 10:32:42;;;;;;;;;;;20.70;40.10;;;;;;491043;240;1182;-71
2020/12/18 10:34:43;;;;;;;;;;;20.70;40.00;;;;;;491127;240;1543;-70
2020/12/18 10:36:44;;;;;;;;;;;20.70;39.90;;;;;;491031;240;1219;-70
2020/12/18 10:38:45;;;;;;;;;;;20.70;39.80;;;;;;490969;240;1551;-71
2020/12/18 10:40:47;;;;;;;;;;;20.70;39.60;;;;;;490910;240;980;-70
2020/12/18 10:42:48;;;;;;;;;;;20.70;39.60;;;;;;490962;240;1227;-70
2020/12/18 10:44:49;;;;;;;;;;;20.70;39.60;;;;;;490927;240;1060;-70
2020/12/18 10:46:51;;;;;;;;;;;20.70;39.70;;;;;;491047;240;1208;-70
2020/12/18 10:48:52;;;;;;;;;;;20.70;39.60;;;;;;491104;240;2199;-70
2020/12/18 10:50:53;;;;;;;;;;;20.70;39.70;;;;;;491128;240;1216;-71
2020/12/18 10:52:54;;;;;;;;;;;20.70;39.70;;;;;;491033;240;1211;-70
2020/12/18 10:54:56;;;;;;;;;;;20.60;39.70;;;;;;491078;240;1049;-70
2020/12/18 10:56:57;;;;;;;;;;;20.70;39.70;;;;;;490974;240;1229;-70
2020/12/18 10:58:58;;;;;;;;;;;20.60;39.70;;;;;;490887;240;1059;-70
2020/12/18 11:00:59;;;;;;;;;;;20.60;39.60;;;;;;490928;240;1072;-70
2020/12/18 11:03:01;;;;;;;;;;;20.70;39.60;;;;;;490901;240;1234;-70
2020/12/18 11:05:02;;;;;;;;;;;20.60;39.50;;;;;;490961;240;1435;-69
2020/12/18 11:07:03;;;;;;;;;;;20.60;39.60;;;;;;490939;240;1211;-70
2020/12/18 11:09:05;;;;;;;;;;;20.60;39.70;;;;;;491005;240;2184;-70
2020/12/18 11:11:08;;;;;;;;;;;20.70;39.60;;;;;;491045;240;1110;-71
2020/12/18 11:13:07;;;;;;;;;;;20.70;39.50;;;;;;491060;242;1375;-71
2020/12/18 11:15:08;;;;;;;;;;;20.70;39.40;;;;;;491133;240;1141;-71
2020/12/18 11:17:10;;;;;;;;;;;20.70;39.50;;;;;;490942;240;1035;-70
2020/12/18 11:19:11;;;;;;;;;;;20.70;39.40;;;;;;490967;240;1042;-70
2020/12/18 11:21:12;;;;;;;;;;;20.80;39.40;;;;;;491039;240;1245;-70
2020/12/18 11:23:14;;;;;;;;;;;20.70;39.40;;;;;;490993;240;1024;-70
2020/12/18 11:25:15;;;;;;;;;;;20.70;39.30;;;;;;491068;240;1055;-71
2020/12/18 11:27:16;;;;;;;;;;;20.70;39.40;;;;;;491132;240;1133;-71
2020/12/18 11:29:17;;;;;;;;;;;20.70;39.50;;;;;;491052;240;2200;-70
2020/12/18 11:31:19;;;;;;;;;;;20.70;39.50;;;;;;490979;240;1227;-70
2020/12/18 11:33:20;;;;;;;;;;;20.70;39.50;;;;;;491128;240;972;-70
2020/12/18 11:35:21;;;;;;;;;;;20.70;39.50;;;;;;491041;240;1238;-70
2020/12/18 11:37:22;;;;;;;;;;;20.70;39.20;;;;;;491071;240;1051;-70
2020/12/18 11:39:26;;;;;;;;;;;20.70;39.50;;;;;;491093;240;1025;-70
2020/12/18 11:41:25;;;;;;;;;;;20.70;39.60;;;;;;490981;242;1427;-68
2020/12/18 11:43:26;;;;;;;;;;;20.70;39.60;;;;;;490930;240;998;-70
2020/12/18 11:45:28;;;;;;;;;;;20.70;39.60;;;;;;490887;240;1029;-71
2020/12/18 11:47:29;;;;;;;;;;;20.70;39.60;;;;;;490990;240;1129;-71
2020/12/18 11:49:30;;;;;;;;;;;20.70;39.50;;;;;;491078;240;2140;-71
2020/12/18 11:51:31;;;;;;;;;;;20.80;39.60;;;;;;491038;240;1206;-71
2020/12/18 11:53:33;;;;;;;;;;;20.70;39.50;;;;;;490849;240;977;-71
2020/12/18 11:55:34;;;;;;;;;;;20.80;39.60;;;;;;490980;240;1024;-71
2020/12/18 11:57:35;;;;;;;;;;;20.80;39.60;;;;;;490912;240;1088;-71